sensor_id;sensor_type;location;lat;lon;timestamp;temperature;humidity
10419;DHT22;5256;48.728;9.140;2023-04-25T00:01:35;6.70;99.90
10419;DHT22;5256;48.728;9.140;2023-04-25T00:04:03;6.70;99.90
10419;DHT22;5256;48.728;9.140;2023-04-25T00:06:32;6.60;99.90
10419;DHT22;5256;48.728;9.140;2023-04-25T00:09:02;6.60;99.90
10419;DHT22;5256;48.728;9.140;2023-04-25T00:11:28;6.60;99.90
10419;DHT22;5256;48.728;9.140;2023-04-25T00:13:56;6.60;99.90
10419;DHT22;5256;48.728;9.140;2023-04-25T00:16:22;6.60;99.90
10419;DHT22;5256;48.728;9.140;2023-04-25T00:18:49;6.60;99.90
10419;DHT22;5256;48.728;9.140;2023-04-25T00:21:18;6.60;99.90
10419;DHT22;5256;48.728;9.140;2023-04-25T00:23:43;6.60;99.90
10419;DHT22;5256;48.728;9.140;2023-04-25T00:26:11;6.50;99.90
10419;DHT22;5256;48.728;9.140;2023-04-25T00:28:37;6.50;99.90
10419;DHT22;5256;48.728;9.140;2023-04-25T00:31:03;6.40;99.90
10419;DHT22;5256;48.728;9.140;2023-04-25T00:33:28;6.50;99.90
10419;DHT22;5256;48.728;9.140;2023-04-25T00:35:55;6.60;99.90
10419;DHT22;5256;48.728;9.140;2023-04-25T00:38:21;6.60;99.90
10419;DHT22;5256;48.728;9.140;2023-04-25T00:40:46;6.60;99.90
10419;DHT22;5256;48.728;9.140;2023-04-25T00:43:12;6.70;99.90
10419;DHT22;5256;48.728;9.140;2023-04-25T00:45:39;6.60;99.90
10419;DHT22;5256;48.728;9.140;2023-04-25T00:48:05;6.50;99.90
10419;DHT22;5256;48.728;9.140;2023-04-25T00:50:33;6.50;99.90
10419;DHT22;5256;48.728;9.140;2023-04-25T00:52:59;6.40;99.90
10419;DHT22;5256;48.728;9.140;2023-04-25T00:55:25;6.40;99.90
10419;DHT22;5256;48.728;9.140;2023-04-25T00:57:51;6.30;99.90
10419;DHT22;5256;48.728;9.140;2023-04-25T01:00:17;6.30;99.90
10419;DHT22;5256;48.728;9.140;2023-04-25T01:02:44;6.20;99.90
10419;DHT22;5256;48.728;9.140;2023-04-25T01:05:10;6.30;99.90
10419;DHT22;5256;48.728;9.140;2023-04-25T01:07:37;6.20;99.90
10419;DHT22;5256;48.728;9.140;2023-04-25T01:10:04;6.30;99.90
10419;DHT22;5256;48.728;9.140;2023-04-25T01:12:30;6.30;99.90
10419;DHT22;5256;48.728;9.140;2023-04-25T01:14:56;6.30;99.90
10419;DHT22;5256;48.728;9.140;2023-04-25T01:17:21;6.30;99.90
10419;DHT22;5256;48.728;9.140;2023-04-25T01:19:47;6.40;99.90
10419;DHT22;5256;48.728;9.140;2023-04-25T01:22:14;6.40;99.90
10419;DHT22;5256;48.728;9.140;2023-04-25T01:24:40;6.30;99.90
10419;DHT22;5256;48.728;9.140;2023-04-25T01:27:06;6.40;99.90
10419;DHT22;5256;48.728;9.140;2023-04-25T01:29:32;6.50;99.90
10419;DHT22;5256;48.728;9.140;2023-04-25T01:31:59;6.70;99.90
10419;DHT22;5256;48.728;9.140;2023-04-25T01:34:25;6.80;99.90
10419;DHT22;5256;48.728;9.140;2023-04-25T01:36:51;6.70;99.90
10419;DHT22;5256;48.728;9.140;2023-04-25T01:39:20;6.80;99.90
10419;DHT22;5256;48.728;9.140;2023-04-25T01:41:46;6.80;99.90
10419;DHT22;5256;48.728;9.140;2023-04-25T01:44:12;6.80;99.90
10419;DHT22;5256;48.728;9.140;2023-04-25T01:46:38;6.90;99.90
10419;DHT22;5256;48.728;9.140;2023-04-25T01:49:04;6.90;99.90
10419;DHT22;5256;48.728;9.140;2023-04-25T01:51:30;6.90;99.90
10419;DHT22;5256;48.728;9.140;2023-04-25T01:53:56;6.90;99.90
10419;DHT22;5256;48.728;9.140;2023-04-25T01:56:22;6.80;99.90
10419;DHT22;5256;48.728;9.140;2023-04-25T01:58:48;6.80;99.90
10419;DHT22;5256;48.728;9.140;2023-04-25T02:01:14;6.80;99.90
10419;DHT22;5256;48.728;9.140;2023-04-25T02:03:40;6.70;99.90
10419;DHT22;5256;48.728;9.140;2023-04-25T02:06:05;6.70;99.90
10419;DHT22;5256;48.728;9.140;2023-04-25T02:08:31;6.60;99.90
10419;DHT22;5256;48.728;9.140;2023-04-25T02:10:57;6.50;99.90
10419;DHT22;5256;48.728;9.140;2023-04-25T02:13:23;6.50;99.90
10419;DHT22;5256;48.728;9.140;2023-04-25T02:15:48;6.50;99.90
10419;DHT22;5256;48.728;9.140;2023-04-25T02:18:14;6.50;99.90
10419;DHT22;5256;48.728;9.140;2023-04-25T02:20:41;6.40;99.90
10419;DHT22;5256;48.728;9.140;2023-04-25T02:23:07;6.50;99.90
10419;DHT22;5256;48.728;9.140;2023-04-25T02:25:32;6.40;99.90
10419;DHT22;5256;48.728;9.140;2023-04-25T02:27:58;6.30;99.90
10419;DHT22;5256;48.728;9.140;2023-04-25T02:30:24;6.20;99.90
10419;DHT22;5256;48.728;9.140;2023-04-25T02:32:49;6.10;99.90
10419;DHT22;5256;48.728;9.140;2023-04-25T02:35:15;6.20;99.90
10419;DHT22;5256;48.728;9.140;2023-04-25T02:37:41;6.20;99.90
10419;DHT22;5256;48.728;9.140;2023-04-25T02:40:08;6.20;99.90
10419;DHT22;5256;48.728;9.140;2023-04-25T02:42:34;6.30;99.90
10419;DHT22;5256;48.728;9.140;2023-04-25T02:44:59;6.40;99.90
10419;DHT22;5256;48.728;9.140;2023-04-25T02:47:25;6.30;99.90
10419;DHT22;5256;48.728;9.140;2023-04-25T02:49:51;6.30;99.90
10419;DHT22;5256;48.728;9.140;2023-04-25T02:52:17;6.30;99.90
10419;DHT22;5256;48.728;9.140;2023-04-25T02:54:42;6.20;99.90
10419;DHT22;5256;48.728;9.140;2023-04-25T02:57:08;6.10;99.90
10419;DHT22;5256;48.728;9.140;2023-04-25T02:59:34;6.10;99.90
10419;DHT22;5256;48.728;9.140;2023-04-25T03:02:00;6.00;99.90
10419;DHT22;5256;48.728;9.140;2023-04-25T03:04:25;6.00;99.90
10419;DHT22;5256;48.728;9.140;2023-04-25T03:06:51;6.00;99.90
10419;DHT22;5256;48.728;9.140;2023-04-25T03:09:17;6.00;99.90
10419;DHT22;5256;48.728;9.140;2023-04-25T03:11:44;6.00;99.90
10419;DHT22;5256;48.728;9.140;2023-04-25T03:14:10;6.00;99.90
10419;DHT22;5256;48.728;9.140;2023-04-25T03:16:35;6.00;99.90
10419;DHT22;5256;48.728;9.140;2023-04-25T03:19:02;6.10;99.90
10419;DHT22;5256;48.728;9.140;2023-04-25T03:21:28;6.10;99.90
10419;DHT22;5256;48.728;9.140;2023-04-25T03:23:54;6.20;99.90
10419;DHT22;5256;48.728;9.140;2023-04-25T03:26:19;6.30;99.90
10419;DHT22;5256;48.728;9.140;2023-04-25T03:28:45;6.30;99.90
10419;DHT22;5256;48.728;9.140;2023-04-25T03:31:11;6.30;99.90
10419;DHT22;5256;48.728;9.140;2023-04-25T03:33:36;6.40;99.90
10419;DHT22;5256;48.728;9.140;2023-04-25T03:36:02;6.40;99.90
10419;DHT22;5256;48.728;9.140;2023-04-25T03:38:28;6.30;99.90
10419;DHT22;5256;48.728;9.140;2023-04-25T03:40:54;6.30;99.90
10419;DHT22;5256;48.728;9.140;2023-04-25T03:43:19;6.30;99.90
10419;DHT22;5256;48.728;9.140;2023-04-25T03:45:45;6.30;99.90
10419;DHT22;5256;48.728;9.140;2023-04-25T03:48:11;6.20;99.90
10419;DHT22;5256;48.728;9.140;2023-04-25T03:50:37;6.20;99.90
10419;DHT22;5256;48.728;9.140;2023-04-25T03:53:02;6.30;99.90
10419;DHT22;5256;48.728;9.140;2023-04-25T03:55:28;6.30;99.90
10419;DHT22;5256;48.728;9.140;2023-04-25T03:57:53;6.30;99.90
10419;DHT22;5256;48.728;9.140;2023-04-25T04:00:19;6.40;99.90
10419;DHT22;5256;48.728;9.140;2023-04-25T04:02:45;6.40;99.90
10419;DHT22;5256;48.728;9.140;2023-04-25T04:05:10;6.40;99.90
10419;DHT22;5256;48.728;9.140;2023-04-25T04:07:36;6.40;99.90
10419;DHT22;5256;48.728;9.140;2023-04-25T04:10:07;6.40;99.90
10419;DHT22;5256;48.728;9.140;2023-04-25T04:12:33;6.40;99.90
10419;DHT22;5256;48.728;9.140;2023-04-25T04:14:59;6.40;99.90
10419;DHT22;5256;48.728;9.140;2023-04-25T04:17:24;6.30;99.90
10419;DHT22;5256;48.728;9.140;2023-04-25T04:19:50;6.20;99.90
10419;DHT22;5256;48.728;9.140;2023-04-25T04:22:16;6.10;99.90
10419;DHT22;5256;48.728;9.140;2023-04-25T04:24:41;5.90;99.90
10419;DHT22;5256;48.728;9.140;2023-04-25T04:27:09;5.80;99.90
10419;DHT22;5256;48.728;9.140;2023-04-25T04:29:35;5.80;99.90
10419;DHT22;5256;48.728;9.140;2023-04-25T04:32:02;5.90;99.90
10419;DHT22;5256;48.728;9.140;2023-04-25T04:34:28;5.90;99.90
10419;DHT22;5256;48.728;9.140;2023-04-25T04:36:54;6.00;99.90
10419;DHT22;5256;48.728;9.140;2023-04-25T04:39:20;6.00;99.90
10419;DHT22;5256;48.728;9.140;2023-04-25T04:41:46;6.00;99.90
10419;DHT22;5256;48.728;9.140;2023-04-25T04:44:12;6.10;99.90
10419;DHT22;5256;48.728;9.140;2023-04-25T04:46:37;6.10;99.90
10419;DHT22;5256;48.728;9.140;2023-04-25T04:49:10;6.20;99.90
10419;DHT22;5256;48.728;9.140;2023-04-25T04:51:37;6.20;99.90
10419;DHT22;5256;48.728;9.140;2023-04-25T04:54:03;6.30;99.90
10419;DHT22;5256;48.728;9.140;2023-04-25T04:56:29;6.40;99.90
10419;DHT22;5256;48.728;9.140;2023-04-25T04:58:56;6.50;99.90
10419;DHT22;5256;48.728;9.140;2023-04-25T05:01:22;6.60;99.90
10419;DHT22;5256;48.728;9.140;2023-04-25T05:03:48;6.60;99.90
10419;DHT22;5256;48.728;9.140;2023-04-25T05:06:14;6.60;99.90
10419;DHT22;5256;48.728;9.140;2023-04-25T05:08:39;6.70;99.90
10419;DHT22;5256;48.728;9.140;2023-04-25T05:11:05;6.70;99.90
10419;DHT22;5256;48.728;9.140;2023-04-25T05:13:30;6.70;99.90
10419;DHT22;5256;48.728;9.140;2023-04-25T05:15:56;6.70;99.90
10419;DHT22;5256;48.728;9.140;2023-04-25T05:18:21;6.90;99.90
10419;DHT22;5256;48.728;9.140;2023-04-25T05:20:47;6.90;99.90
10419;DHT22;5256;48.728;9.140;2023-04-25T05:23:13;7.00;99.90
10419;DHT22;5256;48.728;9.140;2023-04-25T05:25:38;7.00;99.90
10419;DHT22;5256;48.728;9.140;2023-04-25T05:28:04;7.10;99.90
10419;DHT22;5256;48.728;9.140;2023-04-25T05:30:30;7.10;99.90
10419;DHT22;5256;48.728;9.140;2023-04-25T05:32:56;7.10;99.90
10419;DHT22;5256;48.728;9.140;2023-04-25T05:35:21;7.10;99.90
10419;DHT22;5256;48.728;9.140;2023-04-25T05:37:47;7.10;99.90
10419;DHT22;5256;48.728;9.140;2023-04-25T05:40:13;7.10;99.90
10419;DHT22;5256;48.728;9.140;2023-04-25T05:42:38;7.20;99.90
10419;DHT22;5256;48.728;9.140;2023-04-25T05:45:04;7.30;99.90
10419;DHT22;5256;48.728;9.140;2023-04-25T05:47:30;7.40;99.90
10419;DHT22;5256;48.728;9.140;2023-04-25T05:49:55;7.50;99.90
10419;DHT22;5256;48.728;9.140;2023-04-25T05:52:21;7.50;99.90
10419;DHT22;5256;48.728;9.140;2023-04-25T05:54:46;7.60;99.90
10419;DHT22;5256;48.728;9.140;2023-04-25T05:57:28;7.60;99.90
10419;DHT22;5256;48.728;9.140;2023-04-25T05:59:54;7.60;99.90
10419;DHT22;5256;48.728;9.140;2023-04-25T06:02:20;7.50;99.90
10419;DHT22;5256;48.728;9.140;2023-04-25T06:04:47;7.40;99.90
10419;DHT22;5256;48.728;9.140;2023-04-25T06:07:13;7.40;99.90
10419;DHT22;5256;48.728;9.140;2023-04-25T06:09:39;7.30;99.90
10419;DHT22;5256;48.728;9.140;2023-04-25T06:12:06;7.20;99.90
10419;DHT22;5256;48.728;9.140;2023-04-25T06:14:31;7.10;99.90
10419;DHT22;5256;48.728;9.140;2023-04-25T06:16:57;7.10;99.90
10419;DHT22;5256;48.728;9.140;2023-04-25T06:19:22;7.10;99.90
10419;DHT22;5256;48.728;9.140;2023-04-25T06:21:48;7.10;99.90
10419;DHT22;5256;48.728;9.140;2023-04-25T06:24:14;7.20;99.90
10419;DHT22;5256;48.728;9.140;2023-04-25T06:26:39;7.10;99.90
10419;DHT22;5256;48.728;9.140;2023-04-25T06:29:05;7.10;99.90
10419;DHT22;5256;48.728;9.140;2023-04-25T06:31:30;7.10;99.90
10419;DHT22;5256;48.728;9.140;2023-04-25T06:33:58;7.10;99.90
10419;DHT22;5256;48.728;9.140;2023-04-25T06:36:23;7.10;99.90
10419;DHT22;5256;48.728;9.140;2023-04-25T06:38:53;7.00;99.90
10419;DHT22;5256;48.728;9.140;2023-04-25T06:41:18;7.00;99.90
10419;DHT22;5256;48.728;9.140;2023-04-25T06:43:44;6.90;99.90
10419;DHT22;5256;48.728;9.140;2023-04-25T06:46:10;6.90;99.90
10419;DHT22;5256;48.728;9.140;2023-04-25T06:48:35;6.90;99.90
10419;DHT22;5256;48.728;9.140;2023-04-25T06:51:01;6.80;99.90
10419;DHT22;5256;48.728;9.140;2023-04-25T06:53:26;6.80;99.90
10419;DHT22;5256;48.728;9.140;2023-04-25T06:55:52;6.80;99.90
10419;DHT22;5256;48.728;9.140;2023-04-25T06:58:18;6.80;99.90
10419;DHT22;5256;48.728;9.140;2023-04-25T07:00:43;6.80;99.90
10419;DHT22;5256;48.728;9.140;2023-04-25T07:03:09;6.80;99.90
10419;DHT22;5256;48.728;9.140;2023-04-25T07:05:35;6.80;99.90
10419;DHT22;5256;48.728;9.140;2023-04-25T07:08:01;6.80;99.90
10419;DHT22;5256;48.728;9.140;2023-04-25T07:10:26;6.80;99.90
10419;DHT22;5256;48.728;9.140;2023-04-25T07:12:52;6.90;99.90
10419;DHT22;5256;48.728;9.140;2023-04-25T07:15:17;6.90;99.90
10419;DHT22;5256;48.728;9.140;2023-04-25T07:17:43;6.80;99.90
10419;DHT22;5256;48.728;9.140;2023-04-25T07:20:09;6.70;99.90
10419;DHT22;5256;48.728;9.140;2023-04-25T07:22:35;6.70;99.90
10419;DHT22;5256;48.728;9.140;2023-04-25T07:25:01;6.70;99.90
10419;DHT22;5256;48.728;9.140;2023-04-25T07:27:26;6.70;99.90
10419;DHT22;5256;48.728;9.140;2023-04-25T07:29:52;6.70;99.90
10419;DHT22;5256;48.728;9.140;2023-04-25T07:32:17;6.60;99.90
10419;DHT22;5256;48.728;9.140;2023-04-25T07:34:43;6.60;99.90
10419;DHT22;5256;48.728;9.140;2023-04-25T07:37:08;6.50;99.90
10419;DHT22;5256;48.728;9.140;2023-04-25T07:39:34;6.50;99.90
10419;DHT22;5256;48.728;9.140;2023-04-25T07:42:00;6.50;99.90
10419;DHT22;5256;48.728;9.140;2023-04-25T07:44:27;6.50;99.90
10419;DHT22;5256;48.728;9.140;2023-04-25T07:46:53;6.50;99.90
10419;DHT22;5256;48.728;9.140;2023-04-25T07:49:18;6.50;99.90
10419;DHT22;5256;48.728;9.140;2023-04-25T07:51:44;6.40;99.90
10419;DHT22;5256;48.728;9.140;2023-04-25T07:54:12;6.40;99.90
10419;DHT22;5256;48.728;9.140;2023-04-25T07:56:37;6.30;99.90
10419;DHT22;5256;48.728;9.140;2023-04-25T07:59:03;6.30;99.90
10419;DHT22;5256;48.728;9.140;2023-04-25T08:01:28;6.40;99.90
10419;DHT22;5256;48.728;9.140;2023-04-25T08:03:54;6.40;99.90
10419;DHT22;5256;48.728;9.140;2023-04-25T08:06:19;6.50;99.90
10419;DHT22;5256;48.728;9.140;2023-04-25T08:08:45;6.50;99.90
10419;DHT22;5256;48.728;9.140;2023-04-25T08:11:11;6.50;99.90
10419;DHT22;5256;48.728;9.140;2023-04-25T08:13:36;6.50;99.90
10419;DHT22;5256;48.728;9.140;2023-04-25T08:16:02;6.60;99.90
10419;DHT22;5256;48.728;9.140;2023-04-25T08:18:27;6.60;99.90
10419;DHT22;5256;48.728;9.140;2023-04-25T08:20:53;6.70;99.90
10419;DHT22;5256;48.728;9.140;2023-04-25T08:23:18;6.70;99.90
10419;DHT22;5256;48.728;9.140;2023-04-25T08:25:44;6.70;99.90
10419;DHT22;5256;48.728;9.140;2023-04-25T08:28:10;6.80;99.90
10419;DHT22;5256;48.728;9.140;2023-04-25T08:30:37;6.90;99.90
10419;DHT22;5256;48.728;9.140;2023-04-25T08:33:02;6.90;99.90
10419;DHT22;5256;48.728;9.140;2023-04-25T08:35:28;6.90;99.90
10419;DHT22;5256;48.728;9.140;2023-04-25T08:37:54;6.90;99.90
10419;DHT22;5256;48.728;9.140;2023-04-25T08:40:22;6.90;99.90
10419;DHT22;5256;48.728;9.140;2023-04-25T08:42:53;6.90;99.90
10419;DHT22;5256;48.728;9.140;2023-04-25T08:45:18;6.90;99.90
10419;DHT22;5256;48.728;9.140;2023-04-25T08:47:45;6.90;99.90
10419;DHT22;5256;48.728;9.140;2023-04-25T08:50:14;6.80;99.90
10419;DHT22;5256;48.728;9.140;2023-04-25T08:52:46;6.70;99.90
10419;DHT22;5256;48.728;9.140;2023-04-25T08:55:13;6.70;99.90
10419;DHT22;5256;48.728;9.140;2023-04-25T08:57:40;6.80;99.90
10419;DHT22;5256;48.728;9.140;2023-04-25T09:00:09;6.80;99.90
10419;DHT22;5256;48.728;9.140;2023-04-25T09:02:35;6.80;99.90
10419;DHT22;5256;48.728;9.140;2023-04-25T09:05:02;6.80;99.90
10419;DHT22;5256;48.728;9.140;2023-04-25T09:07:27;6.90;99.90
10419;DHT22;5256;48.728;9.140;2023-04-25T09:09:53;6.90;99.90
10419;DHT22;5256;48.728;9.140;2023-04-25T09:12:19;6.90;99.90
10419;DHT22;5256;48.728;9.140;2023-04-25T09:15:02;6.80;99.90
10419;DHT22;5256;48.728;9.140;2023-04-25T09:17:28;6.80;99.90
10419;DHT22;5256;48.728;9.140;2023-04-25T09:19:54;6.70;99.90
10419;DHT22;5256;48.728;9.140;2023-04-25T09:22:19;6.60;99.90
10419;DHT22;5256;48.728;9.140;2023-04-25T09:24:48;6.50;99.90
10419;DHT22;5256;48.728;9.140;2023-04-25T09:27:20;6.40;99.90
10419;DHT22;5256;48.728;9.140;2023-04-25T09:29:57;6.40;99.90
10419;DHT22;5256;48.728;9.140;2023-04-25T09:32:23;6.40;99.90
10419;DHT22;5256;48.728;9.140;2023-04-25T09:34:54;6.40;99.90
10419;DHT22;5256;48.728;9.140;2023-04-25T09:37:20;6.50;99.90
10419;DHT22;5256;48.728;9.140;2023-04-25T09:39:48;6.50;99.90
10419;DHT22;5256;48.728;9.140;2023-04-25T09:42:15;6.40;99.90
10419;DHT22;5256;48.728;9.140;2023-04-25T09:44:43;6.40;99.90
10419;DHT22;5256;48.728;9.140;2023-04-25T09:47:11;6.50;99.90
10419;DHT22;5256;48.728;9.140;2023-04-25T09:49:42;6.40;99.90
10419;DHT22;5256;48.728;9.140;2023-04-25T09:52:08;6.40;99.90
10419;DHT22;5256;48.728;9.140;2023-04-25T09:54:34;6.20;99.90
10419;DHT22;5256;48.728;9.140;2023-04-25T09:57:12;6.20;99.90
10419;DHT22;5256;48.728;9.140;2023-04-25T09:59:41;6.20;99.90
10419;DHT22;5256;48.728;9.140;2023-04-25T10:02:08;6.10;99.90
10419;DHT22;5256;48.728;9.140;2023-04-25T10:04:35;6.10;99.90
10419;DHT22;5256;48.728;9.140;2023-04-25T10:07:03;6.10;99.90
10419;DHT22;5256;48.728;9.140;2023-04-25T10:09:31;6.10;99.90
10419;DHT22;5256;48.728;9.140;2023-04-25T10:11:59;6.10;99.90
10419;DHT22;5256;48.728;9.140;2023-04-25T10:14:26;6.10;99.90
10419;DHT22;5256;48.728;9.140;2023-04-25T10:16:53;6.30;99.90
10419;DHT22;5256;48.728;9.140;2023-04-25T10:19:22;6.40;99.90
10419;DHT22;5256;48.728;9.140;2023-04-25T10:21:51;6.50;99.90
10419;DHT22;5256;48.728;9.140;2023-04-25T10:24:17;6.50;99.90
10419;DHT22;5256;48.728;9.140;2023-04-25T10:26:44;6.50;99.90
10419;DHT22;5256;48.728;9.140;2023-04-25T10:29:10;6.50;99.90
10419;DHT22;5256;48.728;9.140;2023-04-25T10:31:45;6.40;99.90
10419;DHT22;5256;48.728;9.140;2023-04-25T10:34:11;6.40;99.90
10419;DHT22;5256;48.728;9.140;2023-04-25T10:36:37;6.40;99.90
10419;DHT22;5256;48.728;9.140;2023-04-25T10:39:06;6.40;99.90
10419;DHT22;5256;48.728;9.140;2023-04-25T10:41:52;6.40;99.90
10419;DHT22;5256;48.728;9.140;2023-04-25T10:44:17;6.50;99.90
10419;DHT22;5256;48.728;9.140;2023-04-25T10:46:44;6.50;99.90
10419;DHT22;5256;48.728;9.140;2023-04-25T10:49:11;6.40;99.90
10419;DHT22;5256;48.728;9.140;2023-04-25T10:52:26;6.30;99.90
10419;DHT22;5256;48.728;9.140;2023-04-25T10:54:54;6.10;99.90
10419;DHT22;5256;48.728;9.140;2023-04-25T10:57:44;6.20;99.90
10419;DHT22;5256;48.728;9.140;2023-04-25T11:02:41;6.20;99.90
10419;DHT22;5256;48.728;9.140;2023-04-25T11:05:07;6.10;99.90
10419;DHT22;5256;48.728;9.140;2023-04-25T11:08:00;6.10;99.90
10419;DHT22;5256;48.728;9.140;2023-04-25T11:10:26;6.20;99.90
10419;DHT22;5256;48.728;9.140;2023-04-25T11:12:52;6.00;99.90
10419;DHT22;5256;48.728;9.140;2023-04-25T11:15:18;6.00;99.90
10419;DHT22;5256;48.728;9.140;2023-04-25T11:17:43;5.90;99.90
10419;DHT22;5256;48.728;9.140;2023-04-25T11:20:11;5.80;99.90
10419;DHT22;5256;48.728;9.140;2023-04-25T11:22:39;5.80;99.90
10419;DHT22;5256;48.728;9.140;2023-04-25T11:25:09;5.80;99.90
10419;DHT22;5256;48.728;9.140;2023-04-25T11:27:38;5.80;99.90
10419;DHT22;5256;48.728;9.140;2023-04-25T11:30:14;5.90;99.90
10419;DHT22;5256;48.728;9.140;2023-04-25T11:32:43;6.00;99.90
10419;DHT22;5256;48.728;9.140;2023-04-25T11:35:12;6.20;99.90
10419;DHT22;5256;48.728;9.140;2023-04-25T11:37:42;6.30;99.90
10419;DHT22;5256;48.728;9.140;2023-04-25T11:40:09;6.50;99.90
10419;DHT22;5256;48.728;9.140;2023-04-25T11:42:38;6.60;99.90
10419;DHT22;5256;48.728;9.140;2023-04-25T11:45:05;6.90;99.90
10419;DHT22;5256;48.728;9.140;2023-04-25T11:47:32;7.10;99.90
10419;DHT22;5256;48.728;9.140;2023-04-25T11:50:03;7.30;99.90
10419;DHT22;5256;48.728;9.140;2023-04-25T11:55:01;7.70;99.90
10419;DHT22;5256;48.728;9.140;2023-04-25T11:57:31;7.80;99.90
10419;DHT22;5256;48.728;9.140;2023-04-25T12:00:08;7.70;99.90
10419;DHT22;5256;48.728;9.140;2023-04-25T12:02:35;7.70;99.90
10419;DHT22;5256;48.728;9.140;2023-04-25T12:05:01;7.70;99.90
10419;DHT22;5256;48.728;9.140;2023-04-25T12:07:31;7.70;99.90
10419;DHT22;5256;48.728;9.140;2023-04-25T12:09:57;7.70;99.90
10419;DHT22;5256;48.728;9.140;2023-04-25T12:12:27;7.60;99.90
10419;DHT22;5256;48.728;9.140;2023-04-25T12:14:53;7.50;99.90
10419;DHT22;5256;48.728;9.140;2023-04-25T12:17:20;7.40;99.90
10419;DHT22;5256;48.728;9.140;2023-04-25T12:19:47;7.40;99.90
10419;DHT22;5256;48.728;9.140;2023-04-25T12:22:21;7.40;99.90
10419;DHT22;5256;48.728;9.140;2023-04-25T12:24:47;7.30;99.90
10419;DHT22;5256;48.728;9.140;2023-04-25T12:27:15;7.10;99.90
10419;DHT22;5256;48.728;9.140;2023-04-25T12:29:53;7.20;99.90
10419;DHT22;5256;48.728;9.140;2023-04-25T12:32:19;7.20;99.90
10419;DHT22;5256;48.728;9.140;2023-04-25T12:34:45;7.30;99.90
10419;DHT22;5256;48.728;9.140;2023-04-25T12:37:11;7.30;99.90
10419;DHT22;5256;48.728;9.140;2023-04-25T12:39:37;7.30;99.90
10419;DHT22;5256;48.728;9.140;2023-04-25T12:42:03;7.40;99.90
10419;DHT22;5256;48.728;9.140;2023-04-25T12:44:29;7.40;99.90
10419;DHT22;5256;48.728;9.140;2023-04-25T12:46:54;7.60;99.90
10419;DHT22;5256;48.728;9.140;2023-04-25T12:49:20;7.50;99.90
10419;DHT22;5256;48.728;9.140;2023-04-25T12:51:46;7.60;99.90
10419;DHT22;5256;48.728;9.140;2023-04-25T12:54:12;7.70;99.90
10419;DHT22;5256;48.728;9.140;2023-04-25T12:56:38;7.70;99.90
10419;DHT22;5256;48.728;9.140;2023-04-25T12:59:04;7.80;99.90
10419;DHT22;5256;48.728;9.140;2023-04-25T13:01:29;7.80;99.90
10419;DHT22;5256;48.728;9.140;2023-04-25T13:03:55;8.00;99.90
10419;DHT22;5256;48.728;9.140;2023-04-25T13:06:21;8.30;99.90
10419;DHT22;5256;48.728;9.140;2023-04-25T13:08:47;8.70;99.90
10419;DHT22;5256;48.728;9.140;2023-04-25T13:11:13;8.80;99.90
10419;DHT22;5256;48.728;9.140;2023-04-25T13:13:40;8.90;99.90
10419;DHT22;5256;48.728;9.140;2023-04-25T13:16:06;9.00;99.90
10419;DHT22;5256;48.728;9.140;2023-04-25T13:18:33;9.20;99.90
10419;DHT22;5256;48.728;9.140;2023-04-25T13:20:59;9.30;99.90
10419;DHT22;5256;48.728;9.140;2023-04-25T13:23:26;9.20;99.90
10419;DHT22;5256;48.728;9.140;2023-04-25T13:25:52;9.40;99.90
10419;DHT22;5256;48.728;9.140;2023-04-25T13:28:18;9.40;99.90
10419;DHT22;5256;48.728;9.140;2023-04-25T13:30:43;9.70;99.90
10419;DHT22;5256;48.728;9.140;2023-04-25T13:33:09;9.90;99.90
10419;DHT22;5256;48.728;9.140;2023-04-25T13:35:36;10.00;99.90
10419;DHT22;5256;48.728;9.140;2023-04-25T13:38:02;10.20;99.90
10419;DHT22;5256;48.728;9.140;2023-04-25T13:40:28;10.20;99.90
10419;DHT22;5256;48.728;9.140;2023-04-25T13:42:53;10.30;99.90
10419;DHT22;5256;48.728;9.140;2023-04-25T13:45:20;10.60;99.90
10419;DHT22;5256;48.728;9.140;2023-04-25T13:47:45;10.50;99.90
10419;DHT22;5256;48.728;9.140;2023-04-25T13:50:13;10.10;99.90
10419;DHT22;5256;48.728;9.140;2023-04-25T13:52:39;9.60;99.90
10419;DHT22;5256;48.728;9.140;2023-04-25T13:55:05;9.40;99.90
10419;DHT22;5256;48.728;9.140;2023-04-25T13:57:32;9.30;99.90
10419;DHT22;5256;48.728;9.140;2023-04-25T13:59:58;9.40;99.90
10419;DHT22;5256;48.728;9.140;2023-04-25T14:02:24;9.40;99.90
10419;DHT22;5256;48.728;9.140;2023-04-25T14:04:50;9.50;99.90
10419;DHT22;5256;48.728;9.140;2023-04-25T14:07:15;9.40;99.90
10419;DHT22;5256;48.728;9.140;2023-04-25T14:09:41;9.40;99.90
10419;DHT22;5256;48.728;9.140;2023-04-25T14:12:07;9.40;99.90
10419;DHT22;5256;48.728;9.140;2023-04-25T14:14:33;9.60;99.90
10419;DHT22;5256;48.728;9.140;2023-04-25T14:16:58;9.80;99.90
10419;DHT22;5256;48.728;9.140;2023-04-25T14:19:24;10.10;99.90
10419;DHT22;5256;48.728;9.140;2023-04-25T14:21:50;10.30;99.90
10419;DHT22;5256;48.728;9.140;2023-04-25T14:24:15;10.60;99.90
10419;DHT22;5256;48.728;9.140;2023-04-25T14:26:41;11.00;99.90
10419;DHT22;5256;48.728;9.140;2023-04-25T14:29:08;11.30;99.90
10419;DHT22;5256;48.728;9.140;2023-04-25T14:31:35;11.20;99.90
10419;DHT22;5256;48.728;9.140;2023-04-25T14:34:01;11.30;99.90
10419;DHT22;5256;48.728;9.140;2023-04-25T14:36:30;11.80;99.90
10419;DHT22;5256;48.728;9.140;2023-04-25T14:38:59;12.60;99.90
10419;DHT22;5256;48.728;9.140;2023-04-25T14:41:25;13.20;99.90
10419;DHT22;5256;48.728;9.140;2023-04-25T14:43:52;13.00;99.90
10419;DHT22;5256;48.728;9.140;2023-04-25T14:46:18;12.60;99.90
10419;DHT22;5256;48.728;9.140;2023-04-25T14:48:45;12.20;99.90
10419;DHT22;5256;48.728;9.140;2023-04-25T14:51:11;11.70;99.90
10419;DHT22;5256;48.728;9.140;2023-04-25T14:53:36;11.20;99.90
10419;DHT22;5256;48.728;9.140;2023-04-25T14:56:02;11.10;99.90
10419;DHT22;5256;48.728;9.140;2023-04-25T14:58:28;11.00;99.90
10419;DHT22;5256;48.728;9.140;2023-04-25T15:00:53;11.30;99.90
10419;DHT22;5256;48.728;9.140;2023-04-25T15:03:19;11.70;99.90
10419;DHT22;5256;48.728;9.140;2023-04-25T15:05:45;12.00;99.90
10419;DHT22;5256;48.728;9.140;2023-04-25T15:08:10;12.20;99.90
10419;DHT22;5256;48.728;9.140;2023-04-25T15:10:36;12.20;99.90
10419;DHT22;5256;48.728;9.140;2023-04-25T15:13:03;11.90;99.90
10419;DHT22;5256;48.728;9.140;2023-04-25T15:15:29;11.40;99.90
10419;DHT22;5256;48.728;9.140;2023-04-25T15:17:55;11.10;99.90
10419;DHT22;5256;48.728;9.140;2023-04-25T15:20:22;11.20;99.90
10419;DHT22;5256;48.728;9.140;2023-04-25T15:22:47;11.80;99.90
10419;DHT22;5256;48.728;9.140;2023-04-25T15:25:15;12.30;99.90
10419;DHT22;5256;48.728;9.140;2023-04-25T15:27:43;12.50;99.90
10419;DHT22;5256;48.728;9.140;2023-04-25T15:30:12;12.30;99.90
10419;DHT22;5256;48.728;9.140;2023-04-25T15:32:38;12.10;99.90
10419;DHT22;5256;48.728;9.140;2023-04-25T15:35:05;11.70;99.90
10419;DHT22;5256;48.728;9.140;2023-04-25T15:37:32;11.50;99.90
10419;DHT22;5256;48.728;9.140;2023-04-25T15:40:02;11.60;99.90
10419;DHT22;5256;48.728;9.140;2023-04-25T15:42:47;11.80;99.90
10419;DHT22;5256;48.728;9.140;2023-04-25T15:45:14;12.50;99.90
10419;DHT22;5256;48.728;9.140;2023-04-25T15:47:40;12.80;99.90
10419;DHT22;5256;48.728;9.140;2023-04-25T15:50:07;12.60;99.90
10419;DHT22;5256;48.728;9.140;2023-04-25T15:52:35;12.30;99.90
10419;DHT22;5256;48.728;9.140;2023-04-25T15:55:01;11.80;99.90
10419;DHT22;5256;48.728;9.140;2023-04-25T15:57:27;11.60;99.90
10419;DHT22;5256;48.728;9.140;2023-04-25T15:59:52;11.40;99.90
10419;DHT22;5256;48.728;9.140;2023-04-25T16:02:18;11.00;99.90